sensor_id;sensor_type;location;lat;lon;timestamp;pressure;altitude;pressure_sealevel;temperature;humidity
71764;BME280;59602;52.142;5.408;2024-02-21T00:04:51;102257.50;;;10.07;100.00
71764;BME280;59602;52.142;5.408;2024-02-21T00:08:19;102238.06;;;10.05;100.00
71764;BME280;59602;52.142;5.408;2024-02-21T00:11:33;102224.34;;;10.01;100.00
71764;BME280;59602;52.142;5.408;2024-02-21T00:14:38;102225.84;;;9.98;100.00
71764;BME280;59602;52.142;5.408;2024-02-21T00:17:11;102214.06;;;9.94;100.00
71764;BME280;59602;52.142;5.408;2024-02-21T00:19:40;102220.28;;;9.95;100.00
71764;BME280;59602;52.142;5.408;2024-02-21T00:22:14;102221.53;;;9.97;100.00
71764;BME280;59602;52.142;5.408;2024-02-21T00:25:26;102220.28;;;9.95;100.00
71764;BME280;59602;52.142;5.408;2024-02-21T00:28:59;102221.44;;;9.94;100.00
71764;BME280;59602;52.142;5.408;2024-02-21T00:35:03;102218.72;;;9.94;100.00
71764;BME280;59602;52.142;5.408;2024-02-21T00:37:41;102224.59;;;9.96;100.00
71764;BME280;59602;52.142;5.408;2024-02-21T00:41:35;102218.00;;;9.97;100.00
71764;BME280;59602;52.142;5.408;2024-02-21T00:47:47;102209.88;;;9.97;100.00
71764;BME280;59602;52.142;5.408;2024-02-21T00:50:57;102222.22;;;9.94;100.00
71764;BME280;59602;52.142;5.408;2024-02-21T00:54:13;102219.81;;;9.93;100.00
71764;BME280;59602;52.142;5.408;2024-02-21T00:57:20;102219.81;;;9.93;100.00
71764;BME280;59602;52.142;5.408;2024-02-21T01:07:36;102245.88;;;9.94;100.00
71764;BME280;59602;52.142;5.408;2024-02-21T01:10:22;102235.00;;;9.94;100.00
71764;BME280;59602;52.142;5.408;2024-02-21T01:14:03;102230.81;;;9.96;100.00
71764;BME280;59602;52.142;5.408;2024-02-21T01:17:06;102225.84;;;9.98;100.00
71764;BME280;59602;52.142;5.408;2024-02-21T01:19:59;102221.31;;;10.03;100.00
71764;BME280;59602;52.142;5.408;2024-02-21T01:22:33;102218.91;;;10.01;100.00
71764;BME280;59602;52.142;5.408;2024-02-21T01:25:01;102223.22;;;10.02;100.00
71764;BME280;59602;52.142;5.408;2024-02-21T01:27:29;102218.13;;;10.01;100.00
71764;BME280;59602;52.142;5.408;2024-02-21T01:30:05;102215.06;;;10.02;100.00
71764;BME280;59602;52.142;5.408;2024-02-21T01:33:07;102213.94;;;10.03;100.00
71764;BME280;59602;52.142;5.408;2024-02-21T01:36:28;102209.16;;;10.00;100.00
71764;BME280;59602;52.142;5.408;2024-02-21T01:39:24;102201.72;;;9.97;100.00
71764;BME280;59602;52.142;5.408;2024-02-21T01:42:06;102192.09;;;10.00;100.00
71764;BME280;59602;52.142;5.408;2024-02-21T01:49:10;102175.44;;;10.01;100.00
71764;BME280;59602;52.142;5.408;2024-02-21T01:51:54;102177.03;;;10.02;100.00
71764;BME280;59602;52.142;5.408;2024-02-21T01:54:39;102165.03;;;10.03;100.00
71764;BME280;59602;52.142;5.408;2024-02-21T01:57:40;102164.34;;;10.06;100.00
71764;BME280;59602;52.142;5.408;2024-02-21T02:00:40;102171.59;;;10.02;100.00
71764;BME280;59602;52.142;5.408;2024-02-21T02:03:51;102177.38;;;10.01;100.00
71764;BME280;59602;52.142;5.408;2024-02-21T02:06:54;102159.94;;;10.02;100.00
71764;BME280;59602;52.142;5.408;2024-02-21T02:10:29;102163.44;;;10.02;100.00
71764;BME280;59602;52.142;5.408;2024-02-21T02:13:36;102151.00;;;10.01;100.00
71764;BME280;59602;52.142;5.408;2024-02-21T02:20:00;102137.84;;;10.03;100.00
71764;BME280;59602;52.142;5.408;2024-02-21T02:22:51;102130.50;;;10.04;100.00
71764;BME280;59602;52.142;5.408;2024-02-21T02:29:27;102128.22;;;10.06;100.00
71764;BME280;59602;52.142;5.408;2024-02-21T02:35:24;102134.34;;;10.03;100.00
71764;BME280;59602;52.142;5.408;2024-02-21T02:38:52;102126.19;;;10.03;100.00
71764;BME280;59602;52.142;5.408;2024-02-21T02:41:47;102130.81;;;10.02;100.00
71764;BME280;59602;52.142;5.408;2024-02-21T02:47:34;102122.34;;;10.04;100.00
71764;BME280;59602;52.142;5.408;2024-02-21T02:50:20;102126.19;;;10.03;100.00
71764;BME280;59602;52.142;5.408;2024-02-21T02:53:55;102125.06;;;10.04;100.00
71764;BME280;59602;52.142;5.408;2024-02-21T02:57:05;102125.75;;;10.01;100.00
71764;BME280;59602;52.142;5.408;2024-02-21T03:00:11;102112.25;;;10.04;100.00
71764;BME280;59602;52.142;5.408;2024-02-21T03:03:29;102102.53;;;10.03;100.00
71764;BME280;59602;52.142;5.408;2024-02-21T03:06:19;102099.47;;;10.05;100.00
71764;BME280;59602;52.142;5.408;2024-02-21T03:08:52;102104.00;;;10.01;100.00
71764;BME280;59602;52.142;5.408;2024-02-21T03:11:48;102095.06;;;10.00;100.00
71764;BME280;59602;52.142;5.408;2024-02-21T03:14:56;102097.34;;;9.98;100.00
71764;BME280;59602;52.142;5.408;2024-02-21T03:17:40;102087.94;;;9.95;100.00
71764;BME280;59602;52.142;5.408;2024-02-21T03:20:10;102086.38;;;9.94;100.00
71764;BME280;59602;52.142;5.408;2024-02-21T03:26:48;102071.53;;;9.92;100.00
71764;BME280;59602;52.142;5.408;2024-02-21T03:29:17;102072.78;;;9.94;100.00
71764;BME280;59602;52.142;5.408;2024-02-21T03:32:09;102064.81;;;10.02;100.00
71764;BME280;59602;52.142;5.408;2024-02-21T03:35:05;102060.88;;;9.99;100.00
71764;BME280;59602;52.142;5.408;2024-02-21T03:37:54;102054.66;;;9.98;100.00
71764;BME280;59602;52.142;5.408;2024-02-21T03:40:27;102052.72;;;9.99;100.00
71764;BME280;59602;52.142;5.408;2024-02-21T03:43:52;102044.25;;;10.01;100.00
71764;BME280;59602;52.142;5.408;2024-02-21T03:46:39;102039.94;;;10.00;100.00
71764;BME280;59602;52.142;5.408;2024-02-21T03:50:24;102045.81;;;10.02;100.00
71764;BME280;59602;52.142;5.408;2024-02-21T03:52:49;102041.53;;;10.01;100.00
71764;BME280;59602;52.142;5.408;2024-02-21T03:55:19;102043.00;;;9.98;100.00
71764;BME280;59602;52.142;5.408;2024-02-21T03:58:23;102037.22;;;10.00;100.00
71764;BME280;59602;52.142;5.408;2024-02-21T04:01:08;102033.81;;;10.03;100.00
71764;BME280;59602;52.142;5.408;2024-02-21T04:04:09;102039.25;;;10.03;100.00
71764;BME280;59602;52.142;5.408;2024-02-21T04:10:13;102036.09;;;10.01;100.00
71764;BME280;59602;52.142;5.408;2024-02-21T04:12:45;102036.88;;;10.01;100.00
71764;BME280;59602;52.142;5.408;2024-02-21T04:15:14;102042.63;;;10.00;100.00
71764;BME280;59602;52.142;5.408;2024-02-21T04:18:18;102030.22;;;9.98;100.00
71764;BME280;59602;52.142;5.408;2024-02-21T04:24:08;102015.84;;;9.98;100.00
71764;BME280;59602;52.142;5.408;2024-02-21T04:26:36;102016.97;;;9.97;100.00
71764;BME280;59602;52.142;5.408;2024-02-21T04:29:06;102016.97;;;9.97;100.00
71764;BME280;59602;52.142;5.408;2024-02-21T04:32:07;102012.56;;;9.92;100.00
71764;BME280;59602;52.142;5.408;2024-02-21T04:34:58;102015.28;;;9.92;100.00
71764;BME280;59602;52.142;5.408;2024-02-21T04:41:18;102009.50;;;9.94;100.00
71764;BME280;59602;52.142;5.408;2024-02-21T04:43:53;102010.19;;;9.91;100.00
71764;BME280;59602;52.142;5.408;2024-02-21T04:46:42;102001.25;;;9.90;100.00
71764;BME280;59602;52.142;5.408;2024-02-21T04:49:09;101997.41;;;9.91;100.00
71764;BME280;59602;52.142;5.408;2024-02-21T04:51:36;101983.91;;;9.95;100.00
71764;BME280;59602;52.142;5.408;2024-02-21T04:54:03;101988.22;;;9.96;100.00
71764;BME280;59602;52.142;5.408;2024-02-21T04:56:34;101984.25;;;9.93;100.00
71764;BME280;59602;52.142;5.408;2024-02-21T04:59:36;101988.00;;;9.89;100.00
71764;BME280;59602;52.142;5.408;2024-02-21T05:05:07;101986.00;;;9.86;100.00
71764;BME280;59602;52.142;5.408;2024-02-21T05:10:38;101986.44;;;9.88;100.00
71764;BME280;59602;52.142;5.408;2024-02-21T05:13:33;101986.31;;;9.84;100.00
71764;BME280;59602;52.142;5.408;2024-02-21T05:16:14;101979.84;;;9.89;100.00
71764;BME280;59602;52.142;5.408;2024-02-21T05:19:07;101978.13;;;9.96;100.00
71764;BME280;59602;52.142;5.408;2024-02-21T05:22:06;101964.22;;;9.98;100.00
71764;BME280;59602;52.142;5.408;2024-02-21T05:24:40;101963.78;;;9.96;100.00
71764;BME280;59602;52.142;5.408;2024-02-21T05:27:16;101962.50;;;9.93;100.00
71764;BME280;59602;52.142;5.408;2024-02-21T05:30:06;101959.00;;;9.93;100.00
71764;BME280;59602;52.142;5.408;2024-02-21T05:32:44;101946.56;;;9.92;100.00
71764;BME280;59602;52.142;5.408;2024-02-21T05:35:13;101951.75;;;9.97;100.00
71764;BME280;59602;52.142;5.408;2024-02-21T05:38:32;101933.50;;;9.97;100.00
71764;BME280;59602;52.142;5.408;2024-02-21T05:41:06;101925.38;;;9.97;100.00
71764;BME280;59602;52.142;5.408;2024-02-21T05:43:40;101927.63;;;9.95;100.00
71764;BME280;59602;52.142;5.408;2024-02-21T05:46:38;101931.16;;;9.96;100.00
71764;BME280;59602;52.142;5.408;2024-02-21T05:49:09;101922.22;;;9.95;100.00
71764;BME280;59602;52.142;5.408;2024-02-21T05:51:36;101912.81;;;9.93;100.00
71764;BME280;59602;52.142;5.408;2024-02-21T05:54:06;101911.72;;;9.94;100.00
71764;BME280;59602;52.142;5.408;2024-02-21T05:56:36;101911.34;;;9.95;100.00
71764;BME280;59602;52.142;5.408;2024-02-21T05:59:16;101914.06;;;9.95;100.00
71764;BME280;59602;52.142;5.408;2024-02-21T06:02:39;101907.50;;;9.96;100.00
71764;BME280;59602;52.142;5.408;2024-02-21T06:05:11;101905.13;;;9.95;100.00
71764;BME280;59602;52.142;5.408;2024-02-21T06:08:03;101897.69;;;9.92;100.00
71764;BME280;59602;52.142;5.408;2024-02-21T06:10:32;101903.00;;;9.88;100.00
71764;BME280;59602;52.142;5.408;2024-02-21T06:13:53;101891.03;;;9.89;100.00
71764;BME280;59602;52.142;5.408;2024-02-21T06:16:23;101891.81;;;9.90;100.00
71764;BME280;59602;52.142;5.408;2024-02-21T06:18:52;101890.31;;;9.92;100.00
71764;BME280;59602;52.142;5.408;2024-02-21T06:21:19;101887.50;;;9.89;100.00
71764;BME280;59602;52.142;5.408;2024-02-21T06:23:51;101879.72;;;9.87;100.00
71764;BME280;59602;52.142;5.408;2024-02-21T06:26:40;101894.06;;;9.88;100.00
71764;BME280;59602;52.142;5.408;2024-02-21T06:29:11;101896.44;;;9.89;100.00
71764;BME280;59602;52.142;5.408;2024-02-21T06:32:05;101891.88;;;9.93;100.00
71764;BME280;59602;52.142;5.408;2024-02-21T06:34:39;101898.91;;;9.94;100.00
71764;BME280;59602;52.142;5.408;2024-02-21T06:37:32;101902.06;;;9.96;100.00
71764;BME280;59602;52.142;5.408;2024-02-21T06:40:58;101905.13;;;9.95;100.00
71764;BME280;59602;52.142;5.408;2024-02-21T06:50:36;101897.56;;;9.88;100.00
71764;BME280;59602;52.142;5.408;2024-02-21T06:53:15;101890.22;;;9.89;100.00
71764;BME280;59602;52.142;5.408;2024-02-21T06:55:58;101884.78;;;9.89;100.00
71764;BME280;59602;52.142;5.408;2024-02-21T06:58:31;101892.59;;;9.90;100.00
71764;BME280;59602;52.142;5.408;2024-02-21T07:01:36;101877.50;;;9.93;100.00
71764;BME280;59602;52.142;5.408;2024-02-21T07:04:00;101875.16;;;9.91;100.00
71764;BME280;59602;52.142;5.408;2024-02-21T07:06:27;101877.00;;;9.87;100.00
71764;BME280;59602;52.142;5.408;2024-02-21T07:09:02;101880.38;;;9.84;100.00
71764;BME280;59602;52.142;5.408;2024-02-21T07:11:34;101884.25;;;9.83;100.00
71764;BME280;59602;52.142;5.408;2024-02-21T07:14:01;101870.34;;;9.85;100.00
71764;BME280;59602;52.142;5.408;2024-02-21T07:16:44;101873.06;;;9.85;100.00
71764;BME280;59602;52.142;5.408;2024-02-21T07:19:34;101871.91;;;9.86;100.00
71764;BME280;59602;52.142;5.408;2024-02-21T07:24:54;101866.38;;;9.82;100.00
71764;BME280;59602;52.142;5.408;2024-02-21T07:27:31;101866.91;;;9.88;100.00
71764;BME280;59602;52.142;5.408;2024-02-21T07:30:03;101857.53;;;9.85;100.00
71764;BME280;59602;52.142;5.408;2024-02-21T07:32:30;101853.66;;;9.86;100.00
71764;BME280;59602;52.142;5.408;2024-02-21T07:34:57;101851.06;;;9.90;100.00
71764;BME280;59602;52.142;5.408;2024-02-21T07:37:27;101853.00;;;9.89;100.00
71764;BME280;59602;52.142;5.408;2024-02-21T07:39:59;101850.28;;;9.89;100.00
71764;BME280;59602;52.142;5.408;2024-02-21T07:46:22;101828.28;;;9.94;100.00
71764;BME280;59602;52.142;5.408;2024-02-21T07:48:50;101815.41;;;9.91;100.00
71764;BME280;59602;52.142;5.408;2024-02-21T07:51:17;101817.69;;;9.89;100.00
71764;BME280;59602;52.142;5.408;2024-02-21T07:53:51;101804.09;;;9.89;100.00
71764;BME280;59602;52.142;5.408;2024-02-21T07:56:18;101792.78;;;9.87;100.00
71764;BME280;59602;52.142;5.408;2024-02-21T07:58:44;101794.72;;;9.87;100.00
71764;BME280;59602;52.142;5.408;2024-02-21T08:01:18;101801.81;;;9.91;100.00
71764;BME280;59602;52.142;5.408;2024-02-21T08:03:45;101794.88;;;9.94;100.00
71764;BME280;59602;52.142;5.408;2024-02-21T08:06:12;101803.47;;;9.96;100.00
71764;BME280;59602;52.142;5.408;2024-02-21T08:08:40;101801.88;;;9.95;100.00
71764;BME280;59602;52.142;5.408;2024-02-21T08:11:07;101805.03;;;9.97;100.00
71764;BME280;59602;52.142;5.408;2024-02-21T08:13:34;101801.97;;;9.98;100.00
71764;BME280;59602;52.142;5.408;2024-02-21T08:22:37;101785.31;;;10.00;100.00
71764;BME280;59602;52.142;5.408;2024-02-21T08:25:04;101784.19;;;10.01;100.00
71764;BME280;59602;52.142;5.408;2024-02-21T08:27:32;101782.25;;;10.02;100.00
71764;BME280;59602;52.142;5.408;2024-02-21T08:29:59;101780.06;;;10.07;100.00
71764;BME280;59602;52.142;5.408;2024-02-21T08:32:25;101775.41;;;10.08;100.00
71764;BME280;59602;52.142;5.408;2024-02-21T08:34:52;101763.81;;;10.11;100.00
71764;BME280;59602;52.142;5.408;2024-02-21T08:37:19;101764.69;;;10.15;100.00
71764;BME280;59602;52.142;5.408;2024-02-21T08:39:47;101763.94;;;10.14;100.00
71764;BME280;59602;52.142;5.408;2024-02-21T08:42:14;101762.78;;;10.15;100.00
71764;BME280;59602;52.142;5.408;2024-02-21T08:44:41;101757.84;;;10.21;100.00
71764;BME280;59602;52.142;5.408;2024-02-21T08:47:11;101753.22;;;10.22;100.00
71764;BME280;59602;52.142;5.408;2024-02-21T08:49:38;101731.56;;;10.25;100.00
71764;BME280;59602;52.142;5.408;2024-02-21T08:52:05;101737.91;;;10.29;100.00
71764;BME280;59602;52.142;5.408;2024-02-21T08:55:02;101730.94;;;10.32;100.00
71764;BME280;59602;52.142;5.408;2024-02-21T08:57:47;101727.84;;;10.33;100.00
71764;BME280;59602;52.142;5.408;2024-02-21T09:00:46;101725.09;;;10.30;100.00
71764;BME280;59602;52.142;5.408;2024-02-21T09:03:58;101725.41;;;10.28;100.00
71764;BME280;59602;52.142;5.408;2024-02-21T09:06:29;101723.94;;;10.31;100.00
71764;BME280;59602;52.142;5.408;2024-02-21T09:09:01;101726.00;;;10.37;100.00
71764;BME280;59602;52.142;5.408;2024-02-21T09:11:29;101725.56;;;10.35;100.00
71764;BME280;59602;52.142;5.408;2024-02-21T09:13:55;101725.31;;;10.41;100.00
71764;BME280;59602;52.142;5.408;2024-02-21T09:16:22;101717.66;;;10.46;100.00
71764;BME280;59602;52.142;5.408;2024-02-21T09:18:52;101707.56;;;10.47;100.00
71764;BME280;59602;52.142;5.408;2024-02-21T09:51:02;101652.75;;;10.64;99.80
71764;BME280;59602;52.142;5.408;2024-02-21T09:53:30;101643.47;;;10.65;100.00
71764;BME280;59602;52.142;5.408;2024-02-21T09:55:57;101636.13;;;10.69;99.44
71764;BME280;59602;52.142;5.408;2024-02-21T09:58:26;101627.19;;;10.69;99.59
71764;BME280;59602;52.142;5.408;2024-02-21T10:00:54;101613.31;;;10.74;100.00
71764;BME280;59602;52.142;5.408;2024-02-21T10:03:21;101612.63;;;10.80;100.00
71764;BME280;59602;52.142;5.408;2024-02-21T10:05:48;101615.06;;;10.86;100.00
71764;BME280;59602;52.142;5.408;2024-02-21T10:08:22;101599.22;;;10.91;100.00
71764;BME280;59602;52.142;5.408;2024-02-21T10:10:49;101592.56;;;10.89;99.31
71764;BME280;59602;52.142;5.408;2024-02-21T10:13:24;101589.13;;;10.92;98.90
71764;BME280;59602;52.142;5.408;2024-02-21T10:16:16;101588.03;;;10.96;97.86
71764;BME280;59602;52.142;5.408;2024-02-21T10:18:46;101583.81;;;10.99;98.31
71764;BME280;59602;52.142;5.408;2024-02-21T10:21:14;101575.34;;;11.04;98.66
71764;BME280;59602;52.142;5.408;2024-02-21T10:23:48;101573.81;;;11.07;98.30
71764;BME280;59602;52.142;5.408;2024-02-21T10:28:57;101564.56;;;11.11;97.54
71764;BME280;59602;52.142;5.408;2024-02-21T10:31:27;101554.56;;;11.19;97.67
71764;BME280;59602;52.142;5.408;2024-02-21T10:33:56;101543.31;;;11.20;97.49
71764;BME280;59602;52.142;5.408;2024-02-21T10:36:26;101532.41;;;11.20;97.10
71764;BME280;59602;52.142;5.408;2024-02-21T10:38:53;101541.41;;;11.25;96.39
71764;BME280;59602;52.142;5.408;2024-02-21T10:41:22;101537.91;;;11.24;96.16
71764;BME280;59602;52.142;5.408;2024-02-21T10:43:53;101532.41;;;11.20;96.52
71764;BME280;59602;52.142;5.408;2024-02-21T10:46:43;101522.38;;;11.25;96.81
71764;BME280;59602;52.142;5.408;2024-02-21T10:49:22;101513.78;;;11.22;96.86
71764;BME280;59602;52.142;5.408;2024-02-21T10:51:56;101510.22;;;11.18;96.25
71764;BME280;59602;52.142;5.408;2024-02-21T10:54:55;101503.63;;;11.19;96.86
71764;BME280;59602;52.142;5.408;2024-02-21T10:57:25;101485.78;;;11.22;96.72
71764;BME280;59602;52.142;5.408;2024-02-21T10:59:55;101465.59;;;11.23;96.74
71764;BME280;59602;52.142;5.408;2024-02-21T11:02:23;101448.19;;;11.31;96.00
71764;BME280;59602;52.142;5.408;2024-02-21T11:04:51;101439.22;;;11.31;96.33
71764;BME280;59602;52.142;5.408;2024-02-21T11:07:19;101433.03;;;11.34;97.03
71764;BME280;59602;52.142;5.408;2024-02-21T11:09:52;101437.72;;;11.33;96.62
71764;BME280;59602;52.142;5.408;2024-02-21T11:12:21;101441.59;;;11.32;95.64
71764;BME280;59602;52.142;5.408;2024-02-21T11:14:48;101502.94;;;11.26;96.12
71764;BME280;59602;52.142;5.408;2024-02-21T11:17:19;101493.94;;;11.22;96.90
71764;BME280;59602;52.142;5.408;2024-02-21T11:19:47;101502.94;;;11.26;97.31
71764;BME280;59602;52.142;5.408;2024-02-21T11:22:17;101496.25;;;11.20;96.92
71764;BME280;59602;52.142;5.408;2024-02-21T11:25:09;101493.06;;;11.14;97.44
71764;BME280;59602;52.142;5.408;2024-02-21T11:27:59;101473.97;;;11.11;97.25
71764;BME280;59602;52.142;5.408;2024-02-21T11:30:32;101474.69;;;11.08;97.16
71764;BME280;59602;52.142;5.408;2024-02-21T11:33:01;101480.16;;;11.08;97.79
71764;BME280;59602;52.142;5.408;2024-02-21T11:35:33;101479.72;;;11.06;98.62
71764;BME280;59602;52.142;5.408;2024-02-21T11:38:10;101463.41;;;11.06;99.07
71764;BME280;59602;52.142;5.408;2024-02-21T11:40:39;101450.94;;;11.05;99.15
71764;BME280;59602;52.142;5.408;2024-02-21T11:43:08;101445.06;;;11.02;98.46
71764;BME280;59602;52.142;5.408;2024-02-21T11:45:37;101438.13;;;11.05;98.66
71764;BME280;59602;52.142;5.408;2024-02-21T11:48:06;101421.75;;;11.01;98.71
71764;BME280;59602;52.142;5.408;2024-02-21T11:50:35;101417.44;;;11.00;98.57
71764;BME280;59602;52.142;5.408;2024-02-21T11:53:03;101408.06;;;10.98;98.34
71764;BME280;59602;52.142;5.408;2024-02-21T11:55:31;101408.88;;;10.98;98.30
71764;BME280;59602;52.142;5.408;2024-02-21T11:57:59;101415.53;;;11.01;98.43
71764;BME280;59602;52.142;5.408;2024-02-21T12:00:26;101378.63;;;11.04;98.08
71764;BME280;59602;52.142;5.408;2024-02-21T12:02:52;101359.72;;;11.14;98.06
71764;BME280;59602;52.142;5.408;2024-02-21T12:05:33;101361.03;;;11.28;98.02
71764;BME280;59602;52.142;5.408;2024-02-21T12:08:00;101339.78;;;11.40;97.55
71764;BME280;59602;52.142;5.408;2024-02-21T12:10:27;101328.59;;;11.49;96.69
71764;BME280;59602;52.142;5.408;2024-02-21T12:13:05;101309.19;;;11.54;97.24
71764;BME280;59602;52.142;5.408;2024-02-21T12:15:34;101297.19;;;11.59;96.59
71764;BME280;59602;52.142;5.408;2024-02-21T12:18:01;101299.59;;;11.68;96.27
71764;BME280;59602;52.142;5.408;2024-02-21T12:20:28;101292.66;;;11.77;95.34
71764;BME280;59602;52.142;5.408;2024-02-21T12:22:55;101311.75;;;11.77;95.38
71764;BME280;59602;52.142;5.408;2024-02-21T12:25:22;101308.72;;;11.86;94.75
71764;BME280;59602;52.142;5.408;2024-02-21T12:27:50;101296.22;;;11.81;93.85
71764;BME280;59602;52.142;5.408;2024-02-21T12:30:16;101288.41;;;11.80;94.31
71764;BME280;59602;52.142;5.408;2024-02-21T12:32:44;101275.91;;;11.75;93.21
71764;BME280;59602;52.142;5.408;2024-02-21T12:35:12;101252.94;;;11.73;93.99
71764;BME280;59602;52.142;5.408;2024-02-21T12:37:38;101249.44;;;11.72;93.70
71764;BME280;59602;52.142;5.408;2024-02-21T12:40:07;101234.28;;;11.75;93.07
71764;BME280;59602;52.142;5.408;2024-02-21T12:42:34;101232.38;;;11.79;94.07
71764;BME280;59602;52.142;5.408;2024-02-21T12:45:02;101227.69;;;11.79;94.09
71764;BME280;59602;52.142;5.408;2024-02-21T12:47:30;101217.16;;;11.78;93.65
71764;BME280;59602;52.142;5.408;2024-02-21T12:49:58;101205.88;;;11.76;93.69
71764;BME280;59602;52.142;5.408;2024-02-21T12:52:25;101195.41;;;11.81;93.77
71764;BME280;59602;52.142;5.408;2024-02-21T12:54:51;101190.38;;;11.83;92.92
71764;BME280;59602;52.142;5.408;2024-02-21T12:57:18;101192.69;;;11.85;92.70
71764;BME280;59602;52.142;5.408;2024-02-21T12:59:45;101166.25;;;11.86;91.59
71764;BME280;59602;52.142;5.408;2024-02-21T13:02:11;101168.56;;;11.87;92.47
71764;BME280;59602;52.142;5.408;2024-02-21T13:04:38;101165.50;;;11.89;92.09
71764;BME280;59602;52.142;5.408;2024-02-21T13:07:08;101154.19;;;11.87;92.39
71764;BME280;59602;52.142;5.408;2024-02-21T13:09:35;101148.78;;;11.90;93.34
71764;BME280;59602;52.142;5.408;2024-02-21T13:12:02;101136.75;;;11.98;93.55
71764;BME280;59602;52.142;5.408;2024-02-21T13:14:29;101132.88;;;11.99;93.69
71764;BME280;59602;52.142;5.408;2024-02-21T13:16:55;101134.81;;;11.99;93.53
71764;BME280;59602;52.142;5.408;2024-02-21T13:19:23;101121.97;;;12.03;92.68
71764;BME280;59602;52.142;5.408;2024-02-21T13:21:50;101126.28;;;12.08;91.62
71764;BME280;59602;52.142;5.408;2024-02-21T13:24:18;101116.19;;;12.08;92.09
71764;BME280;59602;52.142;5.408;2024-02-21T13:26:45;101116.19;;;12.08;92.22
71764;BME280;59602;52.142;5.408;2024-02-21T13:29:12;101107.19;;;12.04;92.22
71764;BME280;59602;52.142;5.408;2024-02-21T13:31:38;101101.31;;;11.98;92.14
71764;BME280;59602;52.142;5.408;2024-02-21T13:34:06;101094.69;;;11.96;91.96
71764;BME280;59602;52.142;5.408;2024-02-21T13:36:37;101086.06;;;11.87;91.60
71764;BME280;59602;52.142;5.408;2024-02-21T13:39:04;101068.53;;;11.84;91.88
71764;BME280;59602;52.142;5.408;2024-02-21T13:41:32;101063.09;;;11.84;91.70
71764;BME280;59602;52.142;5.408;2024-02-21T13:44:00;101069.31;;;11.84;92.11
71764;BME280;59602;52.142;5.408;2024-02-21T13:46:27;101052.59;;;11.86;92.13
71764;BME280;59602;52.142;5.408;2024-02-21T13:49:02;101050.28;;;11.88;91.67
71764;BME280;59602;52.142;5.408;2024-02-21T13:51:31;101044.78;;;11.84;91.09
71764;BME280;59602;52.142;5.408;2024-02-21T13:53:57;101045.16;;;11.83;91.99
71764;BME280;59602;52.142;5.408;2024-02-21T13:56:25;101021.03;;;11.78;91.67
71764;BME280;59602;52.142;5.408;2024-02-21T13:58:52;101020.63;;;11.76;91.00
71764;BME280;59602;52.142;5.408;2024-02-21T14:01:19;101012.06;;;11.77;91.51
71764;BME280;59602;52.142;5.408;2024-02-21T14:03:46;101001.16;;;11.81;91.78
71764;BME280;59602;52.142;5.408;2024-02-21T14:06:14;100999.25;;;11.81;91.98
71764;BME280;59602;52.142;5.408;2024-02-21T14:08:41;100992.25;;;11.84;91.39
71764;BME280;59602;52.142;5.408;2024-02-21T14:11:08;100975.91;;;11.84;91.05
71764;BME280;59602;52.142;5.408;2024-02-21T14:13:35;100959.53;;;11.77;91.38
71764;BME280;59602;52.142;5.408;2024-02-21T14:16:02;100965.38;;;11.75;90.67
71764;BME280;59602;52.142;5.408;2024-02-21T14:18:28;100957.19;;;11.75;90.78
71764;BME280;59602;52.142;5.408;2024-02-21T14:20:56;100944.72;;;11.74;91.23
71764;BME280;59602;52.142;5.408;2024-02-21T14:23:23;100935.03;;;11.77;91.06
71764;BME280;59602;52.142;5.408;2024-02-21T14:25:49;100940.06;;;11.75;91.29
71764;BME280;59602;52.142;5.408;2024-02-21T14:28:16;100916.72;;;11.77;91.12
71764;BME280;59602;52.142;5.408;2024-02-21T14:30:47;100911.69;;;11.79;90.61
71764;BME280;59602;52.142;5.408;2024-02-21T14:33:14;100910.09;;;11.78;90.04
71764;BME280;59602;52.142;5.408;2024-02-21T14:35:42;100885.19;;;11.76;90.66
71764;BME280;59602;52.142;5.408;2024-02-21T14:38:10;100888.69;;;11.80;90.70
71764;BME280;59602;52.142;5.408;2024-02-21T14:40:38;100880.53;;;11.80;90.71
71764;BME280;59602;52.142;5.408;2024-02-21T14:43:06;100868.84;;;11.80;91.06
71764;BME280;59602;52.142;5.408;2024-02-21T14:45:33;100862.22;;;11.81;91.69
71764;BME280;59602;52.142;5.408;2024-02-21T14:47:59;100856.78;;;11.74;91.01
71764;BME280;59602;52.142;5.408;2024-02-21T14:50:26;100859.13;;;11.75;91.16
71764;BME280;59602;52.142;5.408;2024-02-21T14:52:53;100843.94;;;11.74;90.68
71764;BME280;59602;52.142;5.408;2024-02-21T14:55:19;100833.44;;;11.73;91.40
71764;BME280;59602;52.142;5.408;2024-02-21T14:57:46;100836.91;;;11.70;91.59
71764;BME280;59602;52.142;5.408;2024-02-21T15:00:13;100822.53;;;11.69;93.28
71764;BME280;59602;52.142;5.408;2024-02-21T15:02:40;100820.59;;;11.66;92.40
71764;BME280;59602;52.142;5.408;2024-02-21T15:05:07;100818.25;;;11.57;93.59
71764;BME280;59602;52.142;5.408;2024-02-21T15:07:34;100807.72;;;11.56;93.62
71764;BME280;59602;52.142;5.408;2024-02-21T15:10:02;100799.94;;;11.51;93.37
71764;BME280;59602;52.142;5.408;2024-02-21T15:12:31;100794.50;;;11.43;94.46
71764;BME280;59602;52.142;5.408;2024-02-21T15:14:59;100783.59;;;11.47;95.47
71764;BME280;59602;52.142;5.408;2024-02-21T15:17:26;100785.16;;;11.45;95.77
71764;BME280;59602;52.142;5.408;2024-02-21T15:19:53;100766.09;;;11.41;96.47
71764;BME280;59602;52.142;5.408;2024-02-21T15:22:21;100752.84;;;11.36;96.63
71764;BME280;59602;52.142;5.408;2024-02-21T15:24:49;100752.88;;;11.32;97.20
71764;BME280;59602;52.142;5.408;2024-02-21T15:27:16;100744.69;;;11.29;97.45
71764;BME280;59602;52.142;5.408;2024-02-21T15:29:42;100725.63;;;11.21;99.24
71764;BME280;59602;52.142;5.408;2024-02-21T15:32:09;100722.88;;;11.18;98.62